Time;durP1;ratioP1;P1;durP2;ratioP2;P2;SDS_P1;SDS_P2;PMS_P1;PMS_P2;Temp;Humidity;BMP_temperature;BMP_pressure;BME280_temperature;BME280_humidity;BME280_pressure;Samples;Min_cycle;Max_cycle;Signal;HPM_P1;HPM_P2
2022/08/29 00:02:18;;;;;;;11.90;4.30;;;14.80;99.90;;;;;;5048315;28;20179;-70
2022/08/29 00:04:47;;;;;;;7.60;4.30;;;14.80;99.90;;;;;;5049956;28;20183;-70
2022/08/29 00:07:13;;;;;;;9.20;4.73;;;14.80;99.90;;;;;;5067519;28;20194;-70
2022/08/29 00:09:38;;;;;;;8.70;4.57;;;14.80;99.90;;;;;;5069641;28;20178;-70
2022/08/29 00:12:04;;;;;;;9.17;4.03;;;14.80;99.90;;;;;;5067548;28;20190;-69
2022/08/29 00:14:30;;;;;;;8.97;4.00;;;14.80;99.90;;;;;;5069485;28;20170;-69
2022/08/29 00:16:56;;;;;;;7.37;3.60;;;14.70;99.90;;;;;;5067466;28;20178;-69
2022/08/29 00:19:21;;;;;;;4.90;3.80;;;14.70;99.90;;;;;;5069535;28;20904;-69
2022/08/29 00:21:47;;;;;;;8.03;3.83;;;14.80;99.90;;;;;;5067423;28;20539;-71
2022/08/29 00:24:12;;;;;;;9.80;4.40;;;14.70;99.90;;;;;;5069714;28;20257;-69
2022/08/29 00:26:38;;;;;;;7.43;4.67;;;14.70;99.90;;;;;;5069014;28;20186;-67
2022/08/29 00:29:03;;;;;;;7.20;3.93;;;14.60;99.90;;;;;;5067432;28;20583;-68
2022/08/29 00:31:29;;;;;;;11.17;4.47;;;14.60;99.90;;;;;;5065389;28;20183;-73
2022/08/29 00:33:56;;;;;;;4.83;3.53;;;14.70;99.90;;;;;;5047939;28;20219;-75
2022/08/29 00:36:22;;;;;;;5.83;4.03;;;14.70;99.90;;;;;;5068468;28;20205;-75
2022/08/29 00:38:48;;;;;;;7.97;3.63;;;14.70;99.90;;;;;;5064914;28;20252;-75
2022/08/29 00:41:14;;;;;;;10.63;4.67;;;14.70;99.90;;;;;;5068323;28;20706;-75
2022/08/29 00:43:39;;;;;;;6.80;3.77;;;14.70;99.90;;;;;;5063537;28;20202;-75
2022/08/29 00:46:32;;;;;;;6.50;4.10;;;14.70;99.90;;;;;;5068746;28;20881;-75
2022/08/29 00:49:05;;;;;;;10.00;4.27;;;14.60;99.90;;;;;;5065051;28;20201;-75
2022/08/29 00:51:31;;;;;;;10.57;3.77;;;14.60;99.90;;;;;;5069375;28;20273;-76
2022/08/29 00:54:00;;;;;;;10.43;4.07;;;14.60;99.90;;;;;;5065651;28;20198;-75
2022/08/29 00:56:27;;;;;;;6.93;3.43;;;14.60;99.90;;;;;;5068832;28;20193;-75
2022/08/29 00:59:14;;;;;;;4.67;3.47;;;14.50;99.90;;;;;;5064602;28;20293;-73
2022/08/29 01:01:40;;;;;;;7.93;3.97;;;14.50;99.90;;;;;;5068975;28;20204;-76
2022/08/29 01:04:06;;;;;;;8.90;4.33;;;14.40;99.90;;;;;;5066146;28;20205;-76
2022/08/29 01:06:33;;;;;;;7.03;3.70;;;14.40;99.90;;;;;;5068856;28;20248;-76
2022/08/29 01:08:59;;;;;;;8.70;3.90;;;14.40;99.90;;;;;;5065090;28;20293;-77
2022/08/29 01:14:14;;;;;;;6.37;3.57;;;14.30;99.90;;;;;;5066723;28;20212;-76
2022/08/29 01:16:40;;;;;;;9.30;4.03;;;14.30;99.90;;;;;;5068755;28;20197;-77
2022/08/29 01:19:38;;;;;;;10.13;3.90;;;14.30;99.90;;;;;;5065686;28;20262;-77
2022/08/29 01:22:15;;;;;;;7.93;4.10;;;14.20;99.90;;;;;;5047870;28;20202;-75
2022/08/29 01:24:42;;;;;;;6.83;4.57;;;14.20;99.90;;;;;;5068547;28;20174;-76
2022/08/29 01:27:11;;;;;;;6.30;3.67;;;14.10;99.90;;;;;;5066561;28;20214;-76
2022/08/29 01:29:37;;;;;;;6.60;3.67;;;14.10;99.90;;;;;;5068717;28;20640;-77
2022/08/29 01:32:03;;;;;;;7.13;4.27;;;14.10;99.90;;;;;;5066543;28;20242;-76
2022/08/29 01:34:29;;;;;;;7.47;4.43;;;14.00;99.90;;;;;;5068643;28;20184;-77
2022/08/29 01:36:57;;;;;;;10.17;4.27;;;14.00;99.90;;;;;;5068445;28;20201;-77
2022/08/29 01:39:28;;;;;;;7.50;4.30;;;13.90;99.90;;;;;;5068201;28;20209;-77
2022/08/29 01:41:55;;;;;;;6.57;4.50;;;14.00;99.90;;;;;;5048687;28;20177;-78
2022/08/29 01:44:24;;;;;;;8.60;3.43;;;13.90;99.90;;;;;;5066035;28;20217;-77
2022/08/29 01:46:53;;;;;;;8.97;4.23;;;13.90;99.90;;;;;;5048320;28;20526;-78
2022/08/29 01:49:20;;;;;;;8.40;3.93;;;13.90;99.90;;;;;;5050533;28;20217;-78
2022/08/29 01:51:46;;;;;;;8.67;4.50;;;13.80;99.90;;;;;;5069420;28;20215;-78
2022/08/29 01:54:13;;;;;;;7.40;3.87;;;13.80;99.90;;;;;;5069015;28;20528;-73
2022/08/29 01:56:42;;;;;;;8.67;3.97;;;13.70;99.90;;;;;;5071917;28;20716;-73
2022/08/29 01:59:12;;;;;;;9.67;4.00;;;13.70;99.90;;;;;;5067110;28;20557;-73
2022/08/29 02:01:42;;;;;;;12.37;5.00;;;13.70;99.90;;;;;;5072170;28;20185;-74
2022/08/29 02:04:07;;;;;;;6.03;4.07;;;13.80;99.90;;;;;;5067725;28;20276;-74
2022/08/29 02:06:34;;;;;;;6.30;3.87;;;13.80;99.90;;;;;;5072005;28;20273;-73
2022/08/29 02:08:59;;;;;;;8.73;3.87;;;13.80;99.90;;;;;;5066709;28;20219;-71
2022/08/29 02:11:25;;;;;;;9.70;4.10;;;13.80;99.90;;;;;;5071829;28;20662;-75
2022/08/29 02:13:54;;;;;;;7.30;3.40;;;13.80;99.90;;;;;;5066439;28;20194;-68
2022/08/29 02:16:21;;;;;;;7.03;3.70;;;13.80;99.90;;;;;;5071818;28;20189;-70
2022/08/29 02:18:47;;;;;;;6.47;3.57;;;13.80;99.90;;;;;;5064385;28;20281;-73
2022/08/29 02:21:14;;;;;;;7.13;3.83;;;13.70;99.90;;;;;;5071819;28;20201;-74
2022/08/29 02:23:40;;;;;;;7.67;4.17;;;13.80;99.90;;;;;;5062864;28;20190;-72
2022/08/29 02:26:06;;;;;;;12.87;4.67;;;13.70;99.90;;;;;;5071654;28;20190;-70
2022/08/29 02:28:36;;;;;;;7.20;4.17;;;13.70;99.90;;;;;;5061818;28;20194;-70
2022/08/29 02:31:03;;;;;;;7.73;3.93;;;13.70;99.90;;;;;;5071304;28;20198;-69
2022/08/29 02:33:30;;;;;;;11.23;5.13;;;13.70;99.90;;;;;;5049732;28;20591;-70
2022/08/29 02:35:56;;;;;;;11.73;4.87;;;13.60;99.90;;;;;;5070967;28;20235;-72
2022/08/29 02:38:21;;;;;;;8.53;4.03;;;13.60;99.90;;;;;;5050082;28;20291;-71
2022/08/29 02:40:48;;;;;;;8.27;4.30;;;13.50;99.90;;;;;;5070483;28;20659;-72
2022/08/29 02:43:15;;;;;;;8.63;4.47;;;13.50;99.90;;;;;;5049889;28;20236;-72
2022/08/29 02:45:42;;;;;;;8.27;4.43;;;13.50;99.90;;;;;;5070525;28;20188;-71
2022/08/29 02:48:08;;;;;;;9.63;4.50;;;13.50;99.90;;;;;;5049888;28;20212;-72
2022/08/29 02:50:34;;;;;;;6.60;4.47;;;13.40;99.90;;;;;;5070448;28;20722;-72
2022/08/29 02:53:00;;;;;;;11.07;4.97;;;13.40;99.90;;;;;;5049823;28;20197;-72
2022/08/29 02:55:25;;;;;;;11.80;4.70;;;13.50;99.90;;;;;;5051274;28;20714;-72
2022/08/29 02:57:53;;;;;;;8.90;4.43;;;13.40;99.90;;;;;;5068567;28;20753;-73
2022/08/29 03:00:25;;;;;;;11.93;4.50;;;13.40;99.90;;;;;;5070501;28;21013;-73
2022/08/29 03:02:51;;;;;;;7.97;4.13;;;13.40;99.90;;;;;;5053394;28;20190;-73
2022/08/29 03:05:21;;;;;;;8.03;4.83;;;13.30;99.90;;;;;;5070737;28;20171;-72
2022/08/29 03:07:47;;;;;;;8.40;4.90;;;13.30;99.90;;;;;;5068866;28;20272;-72
2022/08/29 03:10:13;;;;;;;14.30;5.07;;;13.20;99.90;;;;;;5070965;28;20663;-72
2022/08/29 03:12:39;;;;;;;6.93;4.27;;;13.20;99.90;;;;;;5068589;28;20212;-72
2022/08/29 03:15:06;;;;;;;10.53;4.90;;;13.20;99.90;;;;;;5071004;28;20471;-72
2022/08/29 03:17:33;;;;;;;7.97;4.67;;;13.10;99.90;;;;;;5068466;28;20666;-72
2022/08/29 03:19:58;;;;;;;11.83;4.07;;;13.10;99.90;;;;;;5070925;28;20228;-72
2022/08/29 03:22:25;;;;;;;9.43;4.93;;;13.10;99.90;;;;;;5068693;28;20946;-73
2022/08/29 03:24:50;;;;;;;8.63;4.77;;;13.10;99.90;;;;;;5070741;28;20618;-71
2022/08/29 03:27:17;;;;;;;7.60;4.73;;;13.00;99.90;;;;;;5070583;28;20716;-73
2022/08/29 03:29:42;;;;;;;10.00;4.60;;;13.00;99.90;;;;;;5068586;28;20204;-74
2022/08/29 03:32:08;;;;;;;7.43;4.10;;;13.00;99.90;;;;;;5051098;28;20213;-73
2022/08/29 03:34:33;;;;;;;9.27;5.03;;;12.90;99.90;;;;;;5049900;28;20225;-73
2022/08/29 03:36:59;;;;;;;12.13;4.87;;;12.90;99.90;;;;;;5069678;28;20185;-73
2022/08/29 03:39:24;;;;;;;11.17;4.47;;;12.90;99.90;;;;;;5065726;28;20219;-73
2022/08/29 03:41:50;;;;;;;9.53;4.97;;;12.90;99.90;;;;;;5070096;28;20197;-72
2022/08/29 03:44:15;;;;;;;8.70;4.90;;;12.90;99.90;;;;;;5064397;28;20194;-73
2022/08/29 03:46:41;;;;;;;8.50;4.10;;;12.80;99.90;;;;;;5069791;28;20189;-72
2022/08/29 03:49:07;;;;;;;8.37;4.17;;;12.80;99.90;;;;;;5062520;28;20316;-71
2022/08/29 03:51:34;;;;;;;10.63;4.93;;;12.80;99.90;;;;;;5070055;28;20187;-72
2022/08/29 03:53:59;;;;;;;8.57;4.70;;;12.80;99.90;;;;;;5061296;28;20435;-71
2022/08/29 03:56:25;;;;;;;8.33;4.73;;;12.80;99.90;;;;;;5070002;28;20190;-71
2022/08/29 03:58:50;;;;;;;9.80;4.97;;;12.80;99.90;;;;;;5059870;28;20557;-71
2022/08/29 04:01:17;;;;;;;7.90;5.00;;;12.80;99.90;;;;;;5069394;28;20270;-71
2022/08/29 04:03:43;;;;;;;8.70;5.07;;;12.80;99.90;;;;;;5048345;28;20205;-72
2022/08/29 04:06:09;;;;;;;10.10;4.80;;;12.80;99.90;;;;;;5068966;28;20236;-72
2022/08/29 04:08:35;;;;;;;10.50;5.23;;;12.80;99.90;;;;;;5048203;28;20205;-71
2022/08/29 04:11:00;;;;;;;13.33;6.33;;;12.70;99.90;;;;;;5068609;28;20534;-72
2022/08/29 04:13:26;;;;;;;11.37;6.17;;;12.70;99.90;;;;;;5048293;28;20283;-71
2022/08/29 04:15:52;;;;;;;7.57;4.53;;;12.70;99.90;;;;;;5048528;28;20189;-71
2022/08/29 04:18:18;;;;;;;10.20;5.07;;;12.70;99.90;;;;;;5066932;28;20201;-72
2022/08/29 04:20:44;;;;;;;10.43;5.10;;;12.70;99.90;;;;;;5069422;28;20219;-71
2022/08/29 04:23:13;;;;;;;11.03;5.07;;;12.70;99.90;;;;;;5067321;28;20224;-73
2022/08/29 04:25:41;;;;;;;8.87;5.00;;;12.70;99.90;;;;;;5069367;28;20196;-70
2022/08/29 04:28:11;;;;;;;9.57;5.20;;;12.80;99.90;;;;;;5067272;28;20192;-71
2022/08/29 04:30:37;;;;;;;9.23;4.63;;;12.80;99.90;;;;;;5069279;28;20184;-73
2022/08/29 04:33:04;;;;;;;7.40;4.47;;;12.90;99.90;;;;;;5067070;28;20687;-73
2022/08/29 04:35:29;;;;;;;11.17;5.10;;;12.90;99.90;;;;;;5069244;28;20267;-73
2022/08/29 04:37:55;;;;;;;10.37;5.40;;;13.00;99.90;;;;;;5066975;28;20603;-73
2022/08/29 04:40:22;;;;;;;13.17;5.50;;;13.00;99.90;;;;;;5069011;28;20213;-73
2022/08/29 04:42:48;;;;;;;6.70;4.87;;;13.10;99.90;;;;;;5067322;28;20203;-72
2022/08/29 04:45:19;;;;;;;11.80;4.87;;;13.10;99.90;;;;;;5069251;28;20180;-73
2022/08/29 04:47:45;;;;;;;9.87;4.87;;;13.10;99.90;;;;;;5047674;28;20649;-75
2022/08/29 04:50:15;;;;;;;9.77;5.47;;;13.10;99.90;;;;;;5057689;28;20703;-76
2022/08/29 04:52:42;;;;;;;7.63;4.87;;;13.00;99.90;;;;;;5047314;28;20522;-75
2022/08/29 04:55:09;;;;;;;10.33;5.97;;;13.00;99.90;;;;;;5069043;28;20170;-76
2022/08/29 04:57:35;;;;;;;11.23;5.63;;;13.00;99.90;;;;;;5068423;28;20291;-75
2022/08/29 05:00:03;;;;;;;9.00;5.60;;;13.10;99.90;;;;;;5066156;28;20208;-76
2022/08/29 05:02:29;;;;;;;8.77;5.90;;;13.20;99.90;;;;;;5048765;28;20217;-76
2022/08/29 05:04:55;;;;;;;12.33;6.30;;;13.30;99.90;;;;;;5047930;28;20192;-76
2022/08/29 05:07:24;;;;;;;10.23;6.40;;;13.40;99.90;;;;;;5067673;28;20182;-75
2022/08/29 05:09:57;;;;;;;12.30;6.33;;;13.40;99.90;;;;;;5064351;28;20218;-76
2022/08/29 05:12:24;;;;;;;15.03;6.10;;;13.40;99.90;;;;;;5048621;28;20209;-75
2022/08/29 05:14:50;;;;;;;16.43;6.53;;;13.50;99.90;;;;;;5066042;28;20210;-75
2022/08/29 05:17:16;;;;;;;11.73;6.77;;;13.50;99.90;;;;;;5048777;28;20236;-72
2022/08/29 05:19:42;;;;;;;17.50;6.20;;;13.60;99.90;;;;;;5049465;28;20223;-74
2022/08/29 05:22:12;;;;;;;10.07;6.23;;;13.70;99.90;;;;;;5067787;28;20186;-76
2022/08/29 05:24:37;;;;;;;17.23;8.17;;;13.80;99.90;;;;;;5062167;28;20650;-75
2022/08/29 05:27:08;;;;;;;12.97;6.53;;;13.90;99.90;;;;;;5067847;28;20267;-74
2022/08/29 05:29:36;;;;;;;13.73;6.00;;;13.90;99.90;;;;;;5061541;28;20343;-74
2022/08/29 05:32:02;;;;;;;12.77;7.40;;;13.90;99.90;;;;;;5067920;28;20192;-73
2022/08/29 05:34:27;;;;;;;10.50;6.03;;;13.90;99.90;;;;;;5054825;28;21206;-73
2022/08/29 05:36:53;;;;;;;8.47;5.83;;;14.00;99.90;;;;;;5061699;28;20182;-70
2022/08/29 05:39:18;;;;;;;14.40;6.33;;;14.00;99.90;;;;;;5059072;28;20537;-70
2022/08/29 05:41:44;;;;;;;10.73;5.87;;;14.10;99.90;;;;;;5067216;28;20421;-72
2022/08/29 05:44:09;;;;;;;10.63;7.10;;;14.10;99.90;;;;;;5058041;28;20261;-72
2022/08/29 05:46:35;;;;;;;9.50;5.00;;;14.30;99.90;;;;;;5067830;28;20671;-71
2022/08/29 05:49:01;;;;;;;9.43;5.67;;;14.30;99.90;;;;;;5046489;28;20620;-71
2022/08/29 05:51:26;;;;;;;11.37;5.87;;;14.30;99.90;;;;;;5048127;28;20185;-70
2022/08/29 05:53:52;;;;;;;11.77;5.47;;;14.30;99.90;;;;;;5065118;28;20202;-69
2022/08/29 05:56:23;;;;;;;10.27;5.43;;;14.40;99.90;;;;;;5067945;28;20746;-70
2022/08/29 05:58:48;;;;;;;10.13;6.13;;;14.50;99.90;;;;;;5046321;28;20212;-70
2022/08/29 06:01:23;;;;;;;12.37;5.43;;;14.60;99.90;;;;;;5057495;28;20206;-70
2022/08/29 06:03:48;;;;;;;11.70;5.63;;;14.60;99.90;;;;;;5058961;28;20685;-70
2022/08/29 06:06:14;;;;;;;13.63;5.77;;;14.60;99.90;;;;;;5058541;28;20191;-76
2022/08/29 06:08:39;;;;;;;14.87;5.40;;;14.70;99.90;;;;;;5057293;28;20193;-70
2022/08/29 06:11:05;;;;;;;8.93;5.43;;;14.70;99.90;;;;;;5057500;28;20510;-70
2022/08/29 06:13:30;;;;;;;9.30;6.37;;;14.70;99.90;;;;;;5056195;28;20202;-70
2022/08/29 06:15:56;;;;;;;12.33;6.63;;;14.70;99.90;;;;;;5067496;28;20187;-71
2022/08/29 06:18:21;;;;;;;13.97;6.57;;;14.70;99.90;;;;;;5065565;28;20198;-70
2022/08/29 06:20:47;;;;;;;15.23;5.50;;;14.80;99.90;;;;;;5053442;28;20218;-75
2022/08/29 06:23:13;;;;;;;12.93;6.13;;;14.80;99.90;;;;;;5064706;28;20194;-71
2022/08/29 06:25:38;;;;;;;7.13;6.03;;;14.80;99.90;;;;;;5067628;28;20679;-70
2022/08/29 06:28:04;;;;;;;13.23;6.03;;;14.90;99.90;;;;;;5065448;28;20702;-70
2022/08/29 06:30:31;;;;;;;9.97;6.23;;;14.90;99.90;;;;;;5067396;28;20234;-70
2022/08/29 06:32:57;;;;;;;11.30;5.27;;;14.90;99.90;;;;;;5067112;28;20232;-71
2022/08/29 06:35:22;;;;;;;12.80;5.77;;;14.90;99.90;;;;;;5065621;28;20694;-70
2022/08/29 06:37:47;;;;;;;10.50;5.83;;;15.00;99.90;;;;;;5067164;28;20599;-70
2022/08/29 06:40:13;;;;;;;11.30;5.37;;;15.00;99.90;;;;;;5067568;28;20217;-71
2022/08/29 06:42:38;;;;;;;11.80;6.00;;;15.20;99.90;;;;;;5070924;28;20186;-72
2022/08/29 06:45:05;;;;;;;9.03;5.70;;;15.10;99.90;;;;;;5066776;28;20196;-71
2022/08/29 06:47:31;;;;;;;6.37;4.83;;;15.20;99.90;;;;;;5070798;28;20188;-70
2022/08/29 06:49:56;;;;;;;16.83;7.00;;;15.30;99.90;;;;;;5065095;28;20719;-71
2022/08/29 06:52:22;;;;;;;13.17;6.10;;;15.40;99.90;;;;;;5070637;28;20232;-76
2022/08/29 06:54:47;;;;;;;12.57;6.53;;;15.50;99.90;;;;;;5063729;28;20198;-77
2022/08/29 06:57:12;;;;;;;11.37;6.27;;;15.60;99.90;;;;;;5069474;28;20640;-75
2022/08/29 06:59:38;;;;;;;8.57;5.57;;;15.80;99.90;;;;;;5058421;28;20217;-66
2022/08/29 07:02:03;;;;;;;10.87;5.97;;;15.90;99.90;;;;;;5049156;28;20230;-65
2022/08/29 07:04:29;;;;;;;9.63;6.47;;;15.90;99.90;;;;;;5068299;28;20759;-66
2022/08/29 07:06:55;;;;;;;11.73;7.20;;;15.80;99.90;;;;;;5051345;28;20187;-67
2022/08/29 07:09:20;;;;;;;6.73;6.03;;;15.80;99.90;;;;;;5068094;28;20652;-65
2022/08/29 07:11:46;;;;;;;11.77;6.30;;;15.90;99.90;;;;;;5070660;28;20649;-67
2022/08/29 07:14:12;;;;;;;14.77;6.13;;;15.90;99.90;;;;;;5049557;28;20194;-67
2022/08/29 07:16:37;;;;;;;15.27;6.07;;;15.90;99.90;;;;;;5062714;28;20218;-68
2022/08/29 07:19:05;;;;;;;8.23;5.37;;;15.90;99.90;;;;;;5056472;28;20209;-66
2022/08/29 07:21:31;;;;;;;12.13;6.47;;;15.90;99.90;;;;;;5061127;28;20292;-66
2022/08/29 07:23:57;;;;;;;15.50;6.67;;;15.90;99.90;;;;;;5059825;28;20281;-66
2022/08/29 07:26:29;;;;;;;8.40;5.87;;;15.90;99.90;;;;;;5060474;28;20171;-65
2022/08/29 07:28:58;;;;;;;12.87;5.67;;;16.00;99.90;;;;;;5060188;28;20193;-67
2022/08/29 07:31:24;;;;;;;10.10;5.63;;;16.00;99.90;;;;;;5058836;28;20193;-68
2022/08/29 07:33:49;;;;;;;13.07;5.67;;;16.10;99.90;;;;;;5058735;28;20202;-66
2022/08/29 07:36:15;;;;;;;10.77;5.40;;;16.10;99.90;;;;;;5059393;28;20171;-66
2022/08/29 07:38:40;;;;;;;14.70;6.20;;;16.10;99.90;;;;;;5058664;28;20195;-67
2022/08/29 07:41:08;;;;;;;10.03;5.83;;;16.10;99.90;;;;;;5061295;28;21289;-70
2022/08/29 07:43:34;;;;;;;9.40;6.27;;;16.30;99.90;;;;;;5059198;28;20229;-69
2022/08/29 07:46:14;;;;;;;13.60;5.53;;;16.30;99.90;;;;;;5061387;28;20178;-77
2022/08/29 07:48:40;;;;;;;10.43;5.50;;;16.40;99.90;;;;;;5053791;28;20233;-77
2022/08/29 07:51:07;;;;;;;11.13;6.87;;;16.40;99.90;;;;;;5071097;28;20291;-66
2022/08/29 07:53:33;;;;;;;13.77;6.27;;;16.40;99.90;;;;;;5057479;28;20202;-78
2022/08/29 07:56:03;;;;;;;10.40;5.97;;;16.40;99.90;;;;;;5056821;28;20261;-66
2022/08/29 07:58:30;;;;;;;10.50;6.20;;;16.40;99.90;;;;;;5067536;28;20194;-65
2022/08/29 08:00:55;;;;;;;14.77;6.87;;;16.50;99.90;;;;;;5063265;28;20212;-66
2022/08/29 08:03:21;;;;;;;9.17;6.40;;;16.50;99.90;;;;;;5049123;28;20385;-68
2022/08/29 08:05:46;;;;;;;9.97;6.63;;;16.60;99.90;;;;;;5069664;28;20185;-78
2022/08/29 08:08:12;;;;;;;11.73;5.53;;;16.60;99.90;;;;;;5052411;28;20218;-76
2022/08/29 08:10:38;;;;;;;14.40;5.80;;;16.70;99.90;;;;;;5050113;28;20210;-66
2022/08/29 08:13:03;;;;;;;14.47;6.43;;;16.80;99.90;;;;;;5068138;28;20243;-65
2022/08/29 08:15:29;;;;;;;10.90;6.27;;;16.80;99.90;;;;;;5066016;28;20261;-68
2022/08/29 08:17:55;;;;;;;17.83;7.33;;;16.80;99.90;;;;;;5069395;28;20190;-65
2022/08/29 08:20:20;;;;;;;13.17;6.10;;;17.00;99.90;;;;;;5064665;28;20213;-68
2022/08/29 08:22:46;;;;;;;13.23;6.07;;;17.20;99.90;;;;;;5069226;28;20186;-67
2022/08/29 08:25:11;;;;;;;11.40;5.40;;;17.20;99.90;;;;;;5063931;28;20265;-67
2022/08/29 08:27:37;;;;;;;12.50;6.37;;;17.20;99.90;;;;;;5069292;28;20183;-68
2022/08/29 08:30:03;;;;;;;9.70;5.93;;;17.40;99.90;;;;;;5061969;28;20559;-67
2022/08/29 08:32:28;;;;;;;8.77;5.23;;;17.40;99.90;;;;;;5069458;28;20289;-68
2022/08/29 08:34:54;;;;;;;10.30;5.50;;;17.30;99.90;;;;;;5060316;28;20206;-68
2022/08/29 08:37:19;;;;;;;9.40;6.00;;;17.30;99.90;;;;;;5069322;28;20190;-68
2022/08/29 08:40:06;;;;;;;7.17;5.40;;;17.30;99.90;;;;;;5047814;28;20738;-68
2022/08/29 08:42:44;;;;;;;12.37;6.53;;;17.40;99.90;;;;;;5046293;28;20178;-68
2022/08/29 08:45:19;;;;;;;7.63;5.90;;;17.50;99.90;;;;;;5065795;28;20197;-68
2022/08/29 08:48:01;;;;;;;18.40;6.17;;;17.60;99.90;;;;;;5048708;28;20194;-69
2022/08/29 08:50:53;;;;;;;9.37;5.57;;;17.60;99.90;;;;;;5063138;28;20225;-69
2022/08/29 08:53:42;;;;;;;7.43;5.33;;;17.70;99.90;;;;;;5049045;28;20248;-69
2022/08/29 08:56:25;;;;;;;8.93;5.67;;;17.80;99.90;;;;;;5048579;28;20264;-68
2022/08/29 08:58:56;;;;;;;10.27;5.77;;;17.80;99.90;;;;;;5049300;28;20707;-68
2022/08/29 09:01:32;;;;;;;7.70;5.37;;;17.80;99.90;;;;;;5068326;28;20198;-68
2022/08/29 09:04:25;;;;;;;6.57;5.97;;;17.80;99.90;;;;;;5050253;28;20195;-68
2022/08/29 09:07:03;;;;;;;8.43;5.83;;;17.90;99.90;;;;;;5068558;28;20179;-68
2022/08/29 09:09:54;;;;;;;8.30;5.33;;;18.10;99.90;;;;;;5054633;28;20198;-68
2022/08/29 09:12:48;;;;;;;9.90;5.33;;;18.20;99.90;;;;;;5049198;28;20179;-68
2022/08/29 09:15:17;;;;;;;9.23;5.40;;;18.30;99.90;;;;;;5059634;28;20557;-68
2022/08/29 09:18:04;;;;;;;12.03;6.20;;;18.30;99.90;;;;;;5068410;28;20191;-67
2022/08/29 09:20:32;;;;;;;7.77;4.77;;;18.40;99.90;;;;;;5062933;28;20281;-69
2022/08/29 09:23:29;;;;;;;7.40;5.57;;;18.40;99.90;;;;;;5068638;28;20320;-66
2022/08/29 09:25:55;;;;;;;8.23;6.30;;;18.50;99.90;;;;;;5066583;28;20199;-67
2022/08/29 09:28:20;;;;;;;13.33;6.43;;;18.60;99.90;;;;;;5068806;28;20283;-73
2022/08/29 09:31:19;;;;;;;7.17;5.17;;;18.60;99.90;;;;;;5065157;28;20292;-67
2022/08/29 09:33:54;;;;;;;6.73;5.60;;;18.80;99.90;;;;;;5066388;28;20637;-68
2022/08/29 09:36:47;;;;;;;11.20;6.40;;;19.00;99.90;;;;;;5068654;28;20198;-67
2022/08/29 09:39:29;;;;;;;7.57;4.93;;;18.70;99.90;;;;;;5066590;28;20210;-68
2022/08/29 09:41:58;;;;;;;7.00;5.30;;;18.70;99.90;;;;;;5068429;28;20576;-68
2022/08/29 09:44:26;;;;;;;9.33;4.93;;;18.90;99.90;;;;;;5065842;28;20195;-66
2022/08/29 09:47:05;;;;;;;7.97;5.43;;;19.10;99.90;;;;;;5067598;28;20177;-67
2022/08/29 09:49:31;;;;;;;12.07;6.13;;;19.30;99.90;;;;;;5065694;28;20218;-67
2022/08/29 09:52:09;;;;;;;9.57;5.00;;;19.40;99.90;;;;;;5068003;28;20177;-67
2022/08/29 09:54:35;;;;;;;9.33;6.07;;;19.30;99.90;;;;;;5053556;28;20543;-67
2022/08/29 09:57:23;;;;;;;9.97;4.90;;;19.30;99.90;;;;;;5067633;28;20177;-67
2022/08/29 10:00:12;;;;;;;8.20;4.77;;;19.50;99.90;;;;;;5054809;28;20267;-67
2022/08/29 10:02:47;;;;;;;7.73;5.73;;;19.70;99.90;;;;;;5047868;28;20185;-68
2022/08/29 10:05:43;;;;;;;8.87;5.80;;;19.60;99.90;;;;;;5065898;28;20244;-68
2022/08/29 10:08:34;;;;;;;7.70;5.43;;;19.50;99.90;;;;;;5047693;28;20205;-68
2022/08/29 10:11:17;;;;;;;9.37;5.67;;;19.50;99.90;;;;;;5064982;28;20302;-67
2022/08/29 10:13:52;;;;;;;8.87;6.13;;;19.50;99.90;;;;;;5048453;28;20218;-67
2022/08/29 10:16:27;;;;;;;7.53;5.03;;;19.40;99.90;;;;;;5055540;28;20247;-67
2022/08/29 10:19:09;;;;;;;9.27;5.80;;;19.60;99.90;;;;;;5069958;28;20184;-67
2022/08/29 10:21:58;;;;;;;8.37;6.33;;;19.70;99.90;;;;;;5071459;28;20568;-67
2022/08/29 10:24:34;;;;;;;10.13;5.30;;;19.70;99.90;;;;;;5054609;28;20207;-68
2022/08/29 10:27:14;;;;;;;9.00;5.57;;;19.80;99.90;;;;;;5071471;28;20169;-68
2022/08/29 10:29:58;;;;;;;8.97;5.83;;;19.70;99.90;;;;;;5056504;28;20785;-68
2022/08/29 10:32:39;;;;;;;10.17;5.17;;;19.80;99.90;;;;;;5069758;28;20188;-68
2022/08/29 10:35:14;;;;;;;8.93;5.27;;;20.00;99.90;;;;;;5059272;28;20471;-68
2022/08/29 10:37:42;;;;;;;8.80;5.63;;;20.20;99.90;;;;;;5051033;28;20192;-68
2022/08/29 10:40:29;;;;;;;9.07;6.30;;;20.20;99.90;;;;;;5068382;28;20220;-68
2022/08/29 10:43:27;;;;;;;8.07;5.87;;;20.30;99.90;;;;;;5049912;28;20779;-68
2022/08/29 10:45:55;;;;;;;7.33;4.87;;;20.30;99.90;;;;;;5021481;28;20205;-68
2022/08/29 10:48:30;;;;;;;9.57;5.60;;;20.10;99.90;;;;;;5050768;28;20200;-68
2022/08/29 10:51:24;;;;;;;9.47;5.90;;;20.20;99.90;;;;;;5065838;28;20227;-68
2022/08/29 10:53:56;;;;;;;6.83;5.27;;;20.40;99.90;;;;;;5070734;28;20200;-68
2022/08/29 10:56:34;;;;;;;8.93;5.70;;;20.20;99.90;;;;;;5050910;28;20188;-68
2022/08/29 10:59:19;;;;;;;8.87;5.87;;;20.00;99.90;;;;;;5049293;28;20189;-67
2022/08/29 11:01:52;;;;;;;7.37;5.47;;;20.00;99.90;;;;;;5070934;28;20381;-68
2022/08/29 11:04:28;;;;;;;8.27;5.80;;;19.90;99.90;;;;;;5051911;28;20199;-68
2022/08/29 11:07:03;;;;;;;5.60;4.87;;;19.90;99.90;;;;;;5070728;28;20183;-67
2022/08/29 11:09:34;;;;;;;8.50;4.97;;;20.00;99.90;;;;;;5053115;28;20207;-67
2022/08/29 11:12:11;;;;;;;7.23;5.63;;;20.30;99.90;;;;;;5070401;28;20244;-67
2022/08/29 11:14:46;;;;;;;11.70;5.47;;;20.40;99.90;;;;;;5053986;28;20200;-67
2022/08/29 11:17:15;;;;;;;7.57;5.33;;;20.70;99.90;;;;;;5058073;28;20187;-67
2022/08/29 11:20:18;;;;;;;6.30;5.50;;;20.80;99.90;;;;;;5068181;28;20198;-67
2022/08/29 11:23:11;;;;;;;6.17;5.57;;;20.80;99.90;;;;;;5027581;28;20676;-68
2022/08/29 11:25:40;;;;;;;7.07;4.97;;;20.80;99.90;;;;;;5060917;28;20282;-67
2022/08/29 11:28:18;;;;;;;7.73;5.23;;;21.00;99.90;;;;;;5049901;28;20197;-68
2022/08/29 11:30:57;;;;;;;6.33;5.60;;;21.30;99.90;;;;;;5062496;28;20268;-68
2022/08/29 11:33:44;;;;;;;7.60;5.00;;;21.60;99.90;;;;;;5050055;28;20657;-68
2022/08/29 11:37:04;;;;;;;9.27;4.73;;;21.60;99.90;;;;;;5065862;28;20699;-68
2022/08/29 11:39:49;;;;;;;9.73;5.17;;;21.50;99.90;;;;;;5018256;28;20613;-67
2022/08/29 11:42:18;;;;;;;5.83;4.47;;;21.50;99.90;;;;;;5049748;28;20185;-68
2022/08/29 11:44:50;;;;;;;8.60;4.93;;;21.90;99.90;;;;;;5067613;28;20675;-68
2022/08/29 11:47:56;;;;;;;9.60;5.20;;;22.20;99.90;;;;;;5069971;28;20178;-68
2022/08/29 11:50:32;;;;;;;6.47;5.73;;;22.30;99.90;;;;;;5060635;28;20224;-67
2022/08/29 11:53:09;;;;;;;7.13;4.73;;;22.40;99.90;;;;;;5049589;28;20246;-67
2022/08/29 11:56:12;;;;;;;12.53;5.43;;;22.40;99.90;;;;;;5060502;28;20277;-68
2022/08/29 11:58:42;;;;;;;7.97;5.47;;;22.30;99.90;;;;;;5049659;28;20179;-68
2022/08/29 12:01:36;;;;;;;6.17;4.17;;;22.60;99.90;;;;;;5063943;28;20253;-68
2022/08/29 12:04:05;;;;;;;9.63;6.10;;;22.90;99.90;;;;;;5069377;28;20186;-68
2022/08/29 12:06:51;;;;;;;9.33;5.53;;;23.00;99.90;;;;;;5067288;28;20195;-68
2022/08/29 12:09:44;;;;;;;6.20;4.83;;;23.30;99.90;;;;;;5049313;28;20596;-67
2022/08/29 12:12:18;;;;;;;5.87;4.37;;;23.20;99.90;;;;;;5048177;28;20221;-68
2022/08/29 12:14:49;;;;;;;8.67;4.70;;;22.90;99.90;;;;;;5052330;28;20547;-67
2022/08/29 12:17:23;;;;;;;6.60;4.83;;;22.60;99.90;;;;;;5056647;28;20276;-65
2022/08/29 12:20:13;;;;;;;4.30;3.90;;;22.30;99.90;;;;;;5066807;28;20215;-65
2022/08/29 12:22:52;;;;;;;5.63;4.27;;;22.20;99.90;;;;;;5069086;28;20166;-64
2022/08/29 12:25:27;;;;;;;6.13;4.00;;;22.50;99.90;;;;;;5067049;28;20194;-67
2022/08/29 12:28:02;;;;;;;5.07;4.33;;;22.70;99.90;;;;;;5069136;28;20328;-65
2022/08/29 12:30:33;;;;;;;5.10;4.47;;;22.50;99.90;;;;;;5057182;28;20201;-67
2022/08/29 12:33:18;;;;;;;6.57;4.70;;;22.40;99.90;;;;;;5049168;28;20210;-67
2022/08/29 12:36:00;;;;;;;7.63;4.33;;;22.60;99.90;;;;;;5059094;28;20206;-67
2022/08/29 12:38:59;;;;;;;6.28;4.20;;;22.90;99.90;;;;;;5048732;28;20183;-67
2022/08/29 12:41:36;;;;;;;6.10;4.43;;;23.40;99.90;;;;;;5064845;28;20567;-66
2022/08/29 12:44:07;;;;;;;5.70;4.60;;;24.00;99.90;;;;;;5068695;28;20651;-67
2022/08/29 12:46:39;;;;;;;5.10;4.00;;;24.40;99.90;;;;;;5065936;28;20865;-66
2022/08/29 12:49:21;;;;;;;5.65;4.30;;;24.80;99.90;;;;;;5050388;28;20183;-65
2022/08/29 12:52:18;;;;;;;8.70;4.25;;;24.40;99.90;;;;;;5049156;28;20280;-65
2022/08/29 12:54:43;;;;;;;6.13;3.97;;;24.10;99.90;;;;;;5050701;28;20205;-66
2022/08/29 12:57:35;;;;;;;8.25;3.95;;;24.00;99.90;;;;;;5068785;28;20255;-67
2022/08/29 13:00:04;;;;;;;6.33;4.13;;;23.80;99.90;;;;;;5052480;28;20214;-66
2022/08/29 13:02:35;;;;;;;5.05;3.97;;;23.90;99.90;;;;;;5068737;28;20192;-68
2022/08/29 13:05:03;;;;;;;9.35;4.38;;;24.70;99.90;;;;;;5052250;28;20202;-66
2022/08/29 13:07:29;;;;;;;5.57;3.80;;;25.40;99.90;;;;;;5068493;28;20183;-66